Terminal Aerodrome Forecast
Issued by NWS Detroit/Pontiac, MI

Home | Current Version | Previous Version | Text Only | Print | Product List | Glossary On
Versions: 1 2 3 4 5 6 7 8 9 10 11 12 13 14 15 16 17 18 19 20 21 22 23 24 25
000
FTUS43 KDTX 222300
TAFDTW
TAF
KDTW 222320Z 2300/2406 22011KT P6SM FEW060 SCT100
     FM230300 24009KT P6SM SCT060 BKN100
      TEMPO 2307/2309 TSRA BKN035 OVC060CB
     FM231000 32011KT P6SM BKN020 OVC040
     FM231600 35013KT P6SM SCT020 BKN040
     FM232100 01011KT P6SM SCT040=

USA.gov is the U.S. government's official web portal to all federal, state and local government web resources and services.